Time;durP1;ratioP1;P1;durP2;ratioP2;P2;SDS_P1;SDS_P2;PMS_P1;PMS_P2;Temp;Humidity;BMP_temperature;BMP_pressure;BME280_temperature;BME280_humidity;BME280_pressure;Samples;Min_cycle;Max_cycle;Signal;HPM_P1;HPM_P2
2022/12/27 00:01:43;;;;;;;6.90;1.23;;;;;;;;;;4986985;28;20006;-64
2022/12/27 00:04:09;;;;;;;10.82;1.83;;;;;;;;;;4987682;28;20030;-63
2022/12/27 00:06:34;;;;;;;6.38;1.10;;;;;;;;;;4986278;28;20488;-63
2022/12/27 00:09:00;;;;;;;10.73;1.17;;;;;;;;;;4987832;28;20030;-62
2022/12/27 00:11:26;;;;;;;9.95;1.10;;;;;;;;;;4990701;28;20038;-63
2022/12/27 00:13:51;;;;;;;7.90;1.10;;;;;;;;;;4986694;28;20054;-62
2022/12/27 00:16:17;;;;;;;8.82;1.35;;;;;;;;;;4989104;28;20088;-63
2022/12/27 00:18:43;;;;;;;7.82;1.42;;;;;;;;;;4988380;28;20093;-63
2022/12/27 00:21:10;;;;;;;5.53;0.90;;;;;;;;;;4989127;28;20110;-63
2022/12/27 00:23:37;;;;;;;8.48;1.40;;;;;;;;;;4990617;28;20014;-63
2022/12/27 00:26:07;;;;;;;6.93;0.90;;;;;;;;;;4986855;28;20133;-63
2022/12/27 00:28:33;;;;;;;5.07;1.00;;;;;;;;;;4991165;28;20026;-63
2022/12/27 00:30:58;;;;;;;11.00;1.13;;;;;;;;;;4983231;28;20445;-63
2022/12/27 00:33:24;;;;;;;6.00;1.25;;;;;;;;;;4984170;28;20030;-63
2022/12/27 00:35:49;;;;;;;6.90;1.17;;;;;;;;;;4987779;28;20054;-62
2022/12/27 00:38:14;;;;;;;5.40;1.40;;;;;;;;;;4986959;28;20030;-63
2022/12/27 00:40:39;;;;;;;9.07;1.20;;;;;;;;;;4984885;28;20046;-63
2022/12/27 00:43:05;;;;;;;5.60;1.00;;;;;;;;;;4985970;28;20022;-63
2022/12/27 00:45:30;;;;;;;5.40;1.10;;;;;;;;;;4983835;28;20034;-63
2022/12/27 00:47:55;;;;;;;7.37;1.07;;;;;;;;;;4985174;28;20018;-62
2022/12/27 00:50:20;;;;;;;5.82;0.98;;;;;;;;;;4984959;28;20040;-62
2022/12/27 00:52:45;;;;;;;8.70;1.30;;;;;;;;;;4988697;28;20458;-62
2022/12/27 00:55:10;;;;;;;9.32;1.10;;;;;;;;;;4988242;28;20030;-62
2022/12/27 00:57:35;;;;;;;7.82;1.40;;;;;;;;;;4987634;28;20118;-63
2022/12/27 01:00:01;;;;;;;8.32;1.20;;;;;;;;;;4990052;28;20505;-62
2022/12/27 01:02:27;;;;;;;5.70;1.10;;;;;;;;;;4983291;28;20019;-62
2022/12/27 01:04:53;;;;;;;5.78;0.90;;;;;;;;;;4986893;28;20028;-63
2022/12/27 01:07:18;;;;;;;9.02;1.58;;;;;;;;;;4991942;28;20022;-62
2022/12/27 01:09:44;;;;;;;6.28;1.00;;;;;;;;;;4989272;28;20050;-61
2022/12/27 01:12:09;;;;;;;5.83;1.00;;;;;;;;;;4988424;28;20428;-62
2022/12/27 01:14:34;;;;;;;9.55;1.05;;;;;;;;;;4984013;28;20042;-62
2022/12/27 01:16:59;;;;;;;4.47;0.80;;;;;;;;;;4989933;28;20049;-62
2022/12/27 01:19:24;;;;;;;8.30;1.50;;;;;;;;;;4988843;28;20026;-62
2022/12/27 01:21:49;;;;;;;7.55;1.02;;;;;;;;;;4988905;28;20477;-62
2022/12/27 01:24:15;;;;;;;10.80;1.00;;;;;;;;;;4988866;28;20110;-62
2022/12/27 01:26:40;;;;;;;6.35;0.93;;;;;;;;;;4991233;28;20022;-62
2022/12/27 01:29:05;;;;;;;9.70;1.10;;;;;;;;;;4990482;28;20042;-62
2022/12/27 01:31:30;;;;;;;9.80;1.02;;;;;;;;;;4988571;28;20365;-62
2022/12/27 01:33:56;;;;;;;9.80;1.50;;;;;;;;;;4989964;28;20026;-62
2022/12/27 01:36:22;;;;;;;12.70;1.10;;;;;;;;;;4989790;28;20482;-62
2022/12/27 01:38:47;;;;;;;11.75;0.93;;;;;;;;;;4989811;28;20030;-62
2022/12/27 01:44:21;;;;;;;7.88;1.00;;;;;;;;;;4987804;28;20110;-62
2022/12/27 01:46:46;;;;;;;9.05;1.10;;;;;;;;;;4990242;28;20094;-62
2022/12/27 01:49:12;;;;;;;7.53;1.10;;;;;;;;;;4987222;28;20093;-62
2022/12/27 01:51:37;;;;;;;9.63;1.60;;;;;;;;;;4987133;28;20034;-62
2022/12/27 01:54:02;;;;;;;7.90;0.95;;;;;;;;;;4987372;28;20309;-62
2022/12/27 01:56:29;;;;;;;8.27;0.90;;;;;;;;;;4990335;28;20050;-62
2022/12/27 01:59:02;;;;;;;9.93;0.90;;;;;;;;;;4987203;28;20084;-62
2022/12/27 02:01:29;;;;;;;4.72;0.85;;;;;;;;;;4986848;28;20048;-63
2022/12/27 02:03:57;;;;;;;4.90;0.70;;;;;;;;;;4984994;28;20117;-62
2022/12/27 02:06:22;;;;;;;4.68;1.00;;;;;;;;;;4988199;28;20023;-62
2022/12/27 02:09:09;;;;;;;9.47;1.20;;;;;;;;;;4991203;28;20088;-62
2022/12/27 02:11:50;;;;;;;8.57;1.30;;;;;;;;;;4989779;28;20458;-64
2022/12/27 02:14:16;;;;;;;7.75;0.80;;;;;;;;;;4988070;28;20050;-63
2022/12/27 02:16:42;;;;;;;;;;;;;;;;;;4989498;28;20566;-62
2022/12/27 02:19:23;;;;;;;10.30;0.95;;;;;;;;;;4991809;28;20389;-63
2022/12/27 02:22:07;;;;;;;8.52;1.00;;;;;;;;;;4988771;28;20050;-63
2022/12/27 02:24:56;;;;;;;5.82;0.77;;;;;;;;;;4995118;28;20456;-63
2022/12/27 02:27:31;;;;;;;10.02;1.33;;;;;;;;;;4968346;28;20050;-63
2022/12/27 02:30:11;;;;;;;6.93;1.08;;;;;;;;;;4990821;28;20018;-63
2022/12/27 02:32:36;;;;;;;7.53;0.80;;;;;;;;;;4991568;28;20061;-62
2022/12/27 02:35:04;;;;;;;5.75;1.02;;;;;;;;;;4987743;28;20027;-63
2022/12/27 02:37:31;;;;;;;9.25;1.85;;;;;;;;;;4989936;28;20033;-62
2022/12/27 02:53:02;;;;;;;;;;;;;;;;;;4987955;28;20018;-62
2022/12/27 02:53:50;;;;;;;6.53;1.20;;;;;;;;;;4990473;28;20547;-63
2022/12/27 02:59:34;;;;;;;8.45;1.45;;;;;;;;;;4988607;28;20076;-63
2022/12/27 03:04:49;;;;;;;;;;;;;;;;;;4988383;28;20036;-64
2022/12/27 03:07:25;;;;;;;4.18;1.10;;;;;;;;;;4986676;28;19913;-63
2022/12/27 03:16:15;;;;;;;6.70;1.25;;;;;;;;;;4964639;28;20094;-64
2022/12/27 03:18:40;;;;;;;11.25;1.50;;;;;;;;;;4976700;28;20050;-65
2022/12/27 03:26:38;;;;;;;4.22;1.05;;;;;;;;;;4986151;28;20029;-65
2022/12/27 03:34:39;;;;;;;5.93;1.30;;;;;;;;;;4985693;28;20045;-64
2022/12/27 03:39:55;;;;;;;5.45;1.15;;;;;;;;;;4985979;28;20041;-64
2022/12/27 03:45:07;;;;;;;5.68;1.08;;;;;;;;;;4990446;28;20091;-64
2022/12/27 03:47:39;;;;;;;5.60;1.30;;;;;;;;;;4988326;28;20029;-64
2022/12/27 03:50:05;;;;;;;11.18;2.67;;;;;;;;;;4987215;28;20025;-64
2022/12/27 03:52:50;;;;;;;4.33;1.33;;;;;;;;;;4988831;28;20027;-64
2022/12/27 03:55:16;;;;;;;7.05;1.02;;;;;;;;;;4990497;28;20031;-65
2022/12/27 03:57:41;;;;;;;5.63;1.50;;;;;;;;;;4987860;28;20034;-64
2022/12/27 04:00:07;;;;;;;7.65;1.40;;;;;;;;;;4989744;28;20385;-64
2022/12/27 04:02:33;;;;;;;8.60;1.40;;;;;;;;;;4988844;28;20026;-64
2022/12/27 04:04:58;;;;;;;7.43;1.73;;;;;;;;;;4989239;28;20070;-64
2022/12/27 04:07:23;;;;;;;5.55;1.33;;;;;;;;;;4987737;28;20025;-64
2022/12/27 04:34:42;;;;;;;3.63;1.00;;;;;;;;;;4988407;28;20596;-65
2022/12/27 04:37:18;;;;;;;7.65;1.52;;;;;;;;;;4989021;28;20474;-65
2022/12/27 04:56:07;;;;;;;4.78;1.10;;;;;;;;;;4993227;28;20037;-65
2022/12/27 04:58:33;;;;;;;6.22;1.65;;;;;;;;;;4989822;28;20022;-65
2022/12/27 05:03:45;;;;;;;4.30;0.90;;;;;;;;;;4992293;28;20034;-65
2022/12/27 05:06:10;;;;;;;3.03;0.88;;;;;;;;;;4994262;28;20438;-65
2022/12/27 05:14:06;;;;;;;6.53;1.00;;;;;;;;;;4991089;28;20576;-65
2022/12/27 05:16:34;;;;;;;3.90;1.20;;;;;;;;;;4993383;28;20030;-65
2022/12/27 05:18:59;;;;;;;5.50;1.20;;;;;;;;;;4992305;28;20109;-65
2022/12/27 05:21:24;;;;;;;3.63;0.90;;;;;;;;;;5007246;28;20033;-65
2022/12/27 05:26:34;;;;;;;4.38;1.13;;;;;;;;;;4990319;28;20082;-65
2022/12/27 05:28:59;;;;;;;3.75;0.95;;;;;;;;;;4992372;28;20470;-66
2022/12/27 05:31:26;;;;;;;4.47;1.00;;;;;;;;;;4991117;28;20050;-66
2022/12/27 05:33:51;;;;;;;3.15;0.98;;;;;;;;;;4992211;28;20026;-65
2022/12/27 05:36:17;;;;;;;4.35;1.00;;;;;;;;;;4993461;28;20022;-65
2022/12/27 05:38:42;;;;;;;3.58;1.00;;;;;;;;;;4990955;28;20065;-66
2022/12/27 05:41:07;;;;;;;4.57;0.90;;;;;;;;;;4992797;28;20098;-66
2022/12/27 05:43:33;;;;;;;4.80;1.10;;;;;;;;;;4984831;28;20022;-65
2022/12/27 05:46:01;;;;;;;4.63;0.97;;;;;;;;;;4987789;28;20038;-65
2022/12/27 05:48:27;;;;;;;3.40;0.95;;;;;;;;;;4990221;28;20117;-65
2022/12/27 05:50:52;;;;;;;3.53;1.00;;;;;;;;;;4991223;28;20189;-65
2022/12/27 05:53:17;;;;;;;4.07;1.10;;;;;;;;;;4988683;28;20030;-65
2022/12/27 05:55:42;;;;;;;5.75;1.10;;;;;;;;;;4991371;28;20029;-65
2022/12/27 05:58:07;;;;;;;4.43;1.13;;;;;;;;;;4986870;28;20034;-66
2022/12/27 06:00:32;;;;;;;4.28;1.00;;;;;;;;;;4992673;28;20021;-65
2022/12/27 06:02:57;;;;;;;3.23;0.87;;;;;;;;;;4991059;28;20041;-65
2022/12/27 06:05:23;;;;;;;2.08;0.80;;;;;;;;;;4987959;28;20073;-66
2022/12/27 06:07:48;;;;;;;2.40;0.82;;;;;;;;;;4988462;28;20026;-66
2022/12/27 06:10:14;;;;;;;5.68;1.00;;;;;;;;;;4991789;28;20085;-65
2022/12/27 06:12:39;;;;;;;3.90;0.88;;;;;;;;;;4991366;28;20774;-65
2022/12/27 06:15:05;;;;;;;3.47;0.80;;;;;;;;;;4989944;28;20088;-66
2022/12/27 06:17:30;;;;;;;2.35;0.60;;;;;;;;;;4990711;28;20062;-65
2022/12/27 06:19:55;;;;;;;3.50;0.80;;;;;;;;;;4990991;28;20524;-66
2022/12/27 06:22:20;;;;;;;2.83;0.77;;;;;;;;;;4989369;28;20105;-66
2022/12/27 06:24:45;;;;;;;4.55;0.90;;;;;;;;;;4990443;28;20014;-66
2022/12/27 06:27:10;;;;;;;4.22;0.80;;;;;;;;;;4988956;28;20038;-67
2022/12/27 06:29:36;;;;;;;3.43;0.73;;;;;;;;;;4987409;28;20053;-67
2022/12/27 06:32:01;;;;;;;5.13;0.85;;;;;;;;;;4988053;28;20079;-66
2022/12/27 06:34:26;;;;;;;4.22;1.00;;;;;;;;;;4983923;28;20022;-66
2022/12/27 06:36:51;;;;;;;3.83;1.17;;;;;;;;;;4989245;28;20031;-66
2022/12/27 06:39:16;;;;;;;2.67;0.83;;;;;;;;;;4989367;28;20041;-67
2022/12/27 06:41:42;;;;;;;4.63;0.77;;;;;;;;;;4991334;28;20026;-66
2022/12/27 06:44:07;;;;;;;5.70;1.02;;;;;;;;;;4986036;28;20023;-66
2022/12/27 06:46:32;;;;;;;4.23;0.80;;;;;;;;;;4990543;28;20034;-66
2022/12/27 06:48:57;;;;;;;4.95;0.88;;;;;;;;;;4989896;28;20109;-65
2022/12/27 06:51:22;;;;;;;4.20;0.88;;;;;;;;;;4985151;28;20470;-66
2022/12/27 06:53:48;;;;;;;3.42;0.80;;;;;;;;;;4987212;28;20038;-66
2022/12/27 06:56:17;;;;;;;1.92;0.63;;;;;;;;;;4989974;28;20148;-65
2022/12/27 06:58:43;;;;;;;3.65;0.70;;;;;;;;;;4989227;28;20033;-65
2022/12/27 07:01:09;;;;;;;4.90;1.00;;;;;;;;;;4987480;28;20109;-67
2022/12/27 07:03:34;;;;;;;6.50;0.73;;;;;;;;;;4988846;28;20018;-65
2022/12/27 07:06:02;;;;;;;5.68;1.08;;;;;;;;;;4987086;28;20026;-66
2022/12/27 07:08:27;;;;;;;3.08;0.90;;;;;;;;;;4988111;28;20018;-66
2022/12/27 07:10:57;;;;;;;4.53;0.67;;;;;;;;;;4986536;28;20493;-67
2022/12/27 07:13:22;;;;;;;3.97;0.90;;;;;;;;;;4982220;28;20101;-66
2022/12/27 07:15:47;;;;;;;5.25;0.90;;;;;;;;;;4971948;28;20026;-67
2022/12/27 07:18:13;;;;;;;3.40;0.70;;;;;;;;;;4994691;28;20026;-66
2022/12/27 07:20:38;;;;;;;6.70;1.10;;;;;;;;;;4985088;28;20496;-66
2022/12/27 07:23:03;;;;;;;5.43;1.00;;;;;;;;;;4988804;28;20026;-65
2022/12/27 07:25:28;;;;;;;5.22;0.80;;;;;;;;;;4991458;28;20018;-67
2022/12/27 07:27:54;;;;;;;3.97;0.80;;;;;;;;;;4990308;28;20045;-68
2022/12/27 07:30:19;;;;;;;4.30;1.05;;;;;;;;;;4984496;28;20022;-66
2022/12/27 07:32:44;;;;;;;5.30;1.00;;;;;;;;;;4987462;28;20027;-68
2022/12/27 07:35:09;;;;;;;3.88;1.00;;;;;;;;;;4988687;28;20033;-67
2022/12/27 07:37:35;;;;;;;5.63;0.90;;;;;;;;;;4987068;28;20057;-66
2022/12/27 07:40:00;;;;;;;5.40;0.82;;;;;;;;;;4987646;28;20568;-69
2022/12/27 07:42:27;;;;;;;4.25;1.10;;;;;;;;;;4984914;28;20026;-68
2022/12/27 07:44:52;;;;;;;5.82;1.25;;;;;;;;;;4987256;28;20469;-67
2022/12/27 07:47:17;;;;;;;4.30;1.00;;;;;;;;;;4986134;28;20037;-66
2022/12/27 07:49:42;;;;;;;5.32;1.20;;;;;;;;;;4982715;28;20358;-66
2022/12/27 07:52:11;;;;;;;3.72;0.93;;;;;;;;;;4989910;28;20473;-65
2022/12/27 07:54:36;;;;;;;3.67;1.00;;;;;;;;;;4985685;28;20049;-67
2022/12/27 07:57:01;;;;;;;8.23;0.98;;;;;;;;;;4987688;28;20101;-67
2022/12/27 07:59:29;;;;;;;5.00;1.10;;;;;;;;;;4999406;28;20112;-66
2022/12/27 08:02:04;;;;;;;3.80;0.93;;;;;;;;;;4988515;28;20552;-68
2022/12/27 08:04:30;;;;;;;3.65;0.93;;;;;;;;;;4993086;28;20030;-66
2022/12/27 08:06:59;;;;;;;6.90;1.10;;;;;;;;;;4988602;28;20018;-69
2022/12/27 08:09:25;;;;;;;5.80;1.17;;;;;;;;;;4982301;28;20042;-67
2022/12/27 08:11:50;;;;;;;4.65;1.20;;;;;;;;;;4985518;28;20026;-67
2022/12/27 08:14:16;;;;;;;3.27;1.00;;;;;;;;;;4989577;28;20069;-64
2022/12/27 08:16:41;;;;;;;4.88;1.05;;;;;;;;;;4996102;28;20441;-65
2022/12/27 08:19:06;;;;;;;3.67;1.00;;;;;;;;;;5008472;28;20113;-67
2022/12/27 08:21:31;;;;;;;7.57;1.25;;;;;;;;;;5002881;28;20022;-67
2022/12/27 08:23:56;;;;;;;4.30;1.10;;;;;;;;;;4976673;28;20023;-66
2022/12/27 08:26:21;;;;;;;5.53;1.63;;;;;;;;;;4984173;28;20061;-67
2022/12/27 08:28:47;;;;;;;6.20;1.20;;;;;;;;;;4985342;28;20030;-65
2022/12/27 08:31:12;;;;;;;4.43;1.10;;;;;;;;;;4990605;28;20050;-66
2022/12/27 08:33:40;;;;;;;6.45;1.30;;;;;;;;;;4985481;28;20030;-67
2022/12/27 08:36:06;;;;;;;4.00;1.27;;;;;;;;;;4986222;28;20073;-67
2022/12/27 08:38:32;;;;;;;5.45;1.15;;;;;;;;;;4987581;28;20026;-66
2022/12/27 08:40:57;;;;;;;5.15;1.20;;;;;;;;;;4990665;28;20081;-67
2022/12/27 08:43:22;;;;;;;4.77;1.30;;;;;;;;;;4985131;28;20029;-66
2022/12/27 08:45:48;;;;;;;4.03;1.10;;;;;;;;;;4988667;28;20076;-66
2022/12/27 08:48:13;;;;;;;7.22;1.25;;;;;;;;;;4988590;28;20030;-65
2022/12/27 08:50:38;;;;;;;5.85;1.10;;;;;;;;;;4985645;28;20113;-66
2022/12/27 08:53:04;;;;;;;5.07;1.00;;;;;;;;;;4987197;28;20045;-66
2022/12/27 08:55:29;;;;;;;5.30;1.25;;;;;;;;;;4984195;28;20037;-66
2022/12/27 08:57:59;;;;;;;5.57;1.40;;;;;;;;;;4978096;28;20119;-67
2022/12/27 09:00:25;;;;;;;6.70;1.25;;;;;;;;;;4969306;28;20019;-66
2022/12/27 09:02:51;;;;;;;5.80;1.10;;;;;;;;;;4971357;28;20023;-66
2022/12/27 09:05:17;;;;;;;4.03;1.00;;;;;;;;;;4977996;28;20385;-66
2022/12/27 09:07:42;;;;;;;5.00;1.10;;;;;;;;;;4990943;28;20026;-66
2022/12/27 09:10:07;;;;;;;4.82;1.00;;;;;;;;;;4990926;28;20385;-66
2022/12/27 09:12:33;;;;;;;3.95;1.30;;;;;;;;;;4990477;28;20025;-66
2022/12/27 09:14:58;;;;;;;5.65;1.20;;;;;;;;;;4993532;28;20050;-66
2022/12/27 09:17:23;;;;;;;5.75;1.10;;;;;;;;;;4990599;28;20058;-67
2022/12/27 09:19:49;;;;;;;5.85;1.00;;;;;;;;;;4988659;28;20374;-65
2022/12/27 09:22:14;;;;;;;3.83;1.20;;;;;;;;;;4994072;28;20018;-64
2022/12/27 09:24:39;;;;;;;6.93;1.40;;;;;;;;;;4994036;28;20061;-65
2022/12/27 09:27:04;;;;;;;5.68;1.20;;;;;;;;;;4992962;28;20023;-64
2022/12/27 09:29:29;;;;;;;13.10;3.83;;;;;;;;;;4993917;28;20026;-64
2022/12/27 09:31:54;;;;;;;9.18;2.20;;;;;;;;;;4993996;28;20044;-65
2022/12/27 09:34:19;;;;;;;4.63;1.05;;;;;;;;;;4993791;28;20042;-66
2022/12/27 09:36:45;;;;;;;6.65;1.25;;;;;;;;;;4992676;28;20034;-65
2022/12/27 09:39:12;;;;;;;4.13;0.88;;;;;;;;;;4991794;28;20033;-66
2022/12/27 09:42:10;;;;;;;4.35;1.00;;;;;;;;;;4991913;28;20022;-66
2022/12/27 09:44:36;;;;;;;5.07;0.90;;;;;;;;;;4982471;28;20081;-66
2022/12/27 09:47:19;;;;;;;4.88;1.08;;;;;;;;;;4992899;28;20022;-65
2022/12/27 09:49:46;;;;;;;4.85;1.17;;;;;;;;;;4993338;28;20028;-65
2022/12/27 09:52:15;;;;;;;6.63;1.10;;;;;;;;;;4993487;28;20077;-65
2022/12/27 09:54:40;;;;;;;4.97;1.10;;;;;;;;;;4993737;28;20072;-65
2022/12/27 09:57:12;;;;;;;4.55;0.95;;;;;;;;;;4993643;28;20022;-65
2022/12/27 09:59:41;;;;;;;5.70;1.50;;;;;;;;;;4991998;28;20369;-64
2022/12/27 10:02:22;;;;;;;4.47;1.10;;;;;;;;;;4993373;28;20076;-66
2022/12/27 10:04:48;;;;;;;4.95;1.05;;;;;;;;;;4993343;28;20014;-66
2022/12/27 10:07:16;;;;;;;4.38;1.20;;;;;;;;;;4993583;28;20073;-65
2022/12/27 10:09:50;;;;;;;3.33;1.08;;;;;;;;;;4993115;28;20106;-65
2022/12/27 10:12:15;;;;;;;6.65;1.20;;;;;;;;;;4990358;28;20112;-65
2022/12/27 10:15:05;;;;;;;4.43;0.85;;;;;;;;;;5005828;28;20073;-65
2022/12/27 10:17:52;;;;;;;4.80;0.98;;;;;;;;;;5012932;28;20168;-65
2022/12/27 10:20:41;;;;;;;4.47;1.10;;;;;;;;;;5012552;28;20065;-66
2022/12/27 10:23:10;;;;;;;3.67;1.08;;;;;;;;;;4986645;28;20034;-65
2022/12/27 10:25:36;;;;;;;5.95;1.10;;;;;;;;;;4973823;28;20019;-66
2022/12/27 10:28:09;;;;;;;4.68;1.00;;;;;;;;;;4973587;28;20061;-65
2022/12/27 10:30:34;;;;;;;4.88;1.00;;;;;;;;;;4973269;28;20019;-65
2022/12/27 10:32:59;;;;;;;5.03;0.90;;;;;;;;;;4986642;28;20386;-65
2022/12/27 10:35:25;;;;;;;5.72;0.93;;;;;;;;;;4992580;28;20026;-65
2022/12/27 10:37:52;;;;;;;3.60;0.95;;;;;;;;;;4992843;28;20045;-66
2022/12/27 10:40:36;;;;;;;4.25;0.70;;;;;;;;;;4992193;28;20105;-65
2022/12/27 10:43:03;;;;;;;7.40;1.20;;;;;;;;;;4991602;28;20498;-65
2022/12/27 10:45:28;;;;;;;4.70;1.45;;;;;;;;;;4992866;28;20014;-66
2022/12/27 10:47:54;;;;;;;3.40;0.97;;;;;;;;;;4992239;28;20029;-66
2022/12/27 10:50:20;;;;;;;4.47;1.05;;;;;;;;;;4976424;28;20034;-65
2022/12/27 10:52:46;;;;;;;5.22;1.02;;;;;;;;;;4988880;28;20049;-66
2022/12/27 10:55:29;;;;;;;3.53;0.90;;;;;;;;;;4992518;28;20026;-65
2022/12/27 10:57:54;;;;;;;4.28;1.15;;;;;;;;;;4992253;28;20026;-65
2022/12/27 11:00:21;;;;;;;4.60;1.08;;;;;;;;;;4991891;28;20023;-66
2022/12/27 11:02:56;;;;;;;3.60;1.10;;;;;;;;;;4991443;28;20038;-64
2022/12/27 11:05:26;;;;;;;6.63;1.17;;;;;;;;;;4992561;28;20078;-68
2022/12/27 11:07:51;;;;;;;3.97;0.90;;;;;;;;;;4992261;28;20038;-67
2022/12/27 11:10:18;;;;;;;4.43;0.70;;;;;;;;;;4992241;28;20030;-67
2022/12/27 11:12:59;;;;;;;4.00;0.95;;;;;;;;;;4991184;28;20031;-67
2022/12/27 11:15:25;;;;;;;4.28;1.02;;;;;;;;;;4992314;28;20086;-67
2022/12/27 11:17:52;;;;;;;6.45;1.00;;;;;;;;;;4992138;28;20440;-67
2022/12/27 11:20:22;;;;;;;3.40;0.90;;;;;;;;;;4991942;28;20022;-67
2022/12/27 11:22:49;;;;;;;6.30;0.90;;;;;;;;;;4990684;28;20026;-66
2022/12/27 11:25:15;;;;;;;4.07;0.90;;;;;;;;;;4991778;28;20547;-67
2022/12/27 11:27:43;;;;;;;6.95;1.00;;;;;;;;;;4991261;28;20057;-67
2022/12/27 11:30:19;;;;;;;4.60;0.90;;;;;;;;;;4991344;28;20042;-67
2022/12/27 11:32:44;;;;;;;3.05;0.90;;;;;;;;;;4990671;28;20034;-66
2022/12/27 11:35:14;;;;;;;3.95;0.90;;;;;;;;;;4991266;28;20124;-66
2022/12/27 11:37:40;;;;;;;4.38;0.98;;;;;;;;;;4991989;28;20023;-67
2022/12/27 11:40:24;;;;;;;4.80;0.87;;;;;;;;;;4991729;28;20014;-67
2022/12/27 11:42:49;;;;;;;;;;;;;;;;;;4991938;28;20026;-67
2022/12/27 11:45:17;;;;;;;3.08;0.85;;;;;;;;;;4991010;28;19964;-68
2022/12/27 11:47:51;;;;;;;3.72;0.82;;;;;;;;;;4990402;28;20022;-67
2022/12/27 11:50:25;;;;;;;5.13;1.13;;;;;;;;;;4992131;28;20041;-64
2022/12/27 11:53:05;;;;;;;4.50;0.77;;;;;;;;;;4991606;28;20037;-67
2022/12/27 11:55:41;;;;;;;5.35;1.10;;;;;;;;;;4990766;28;20019;-66
2022/12/27 11:58:25;;;;;;;3.90;0.88;;;;;;;;;;4991421;28;20042;-65
2022/12/27 12:01:00;;;;;;;4.05;1.00;;;;;;;;;;4977175;28;20022;-65
2022/12/27 12:03:37;;;;;;;3.85;0.80;;;;;;;;;;4972189;28;20038;-66
2022/12/27 12:06:08;;;;;;;4.68;0.90;;;;;;;;;;4985228;28;20030;-65
2022/12/27 12:08:52;;;;;;;1.77;0.60;;;;;;;;;;4991528;28;20025;-66
2022/12/27 12:11:38;;;;;;;3.63;0.90;;;;;;;;;;4999143;28;20093;-65
2022/12/27 12:14:15;;;;;;;4.55;0.90;;;;;;;;;;5010651;28;20054;-66
2022/12/27 12:16:58;;;;;;;3.60;0.95;;;;;;;;;;4994964;28;20561;-66
2022/12/27 12:19:42;;;;;;;6.28;1.27;;;;;;;;;;4991935;28;20026;-66
2022/12/27 12:22:22;;;;;;;3.60;0.88;;;;;;;;;;4991665;28;20025;-66
2022/12/27 12:24:58;;;;;;;5.20;1.08;;;;;;;;;;4991302;28;20069;-68
2022/12/27 12:27:39;;;;;;;3.85;0.82;;;;;;;;;;4987798;28;20050;-67
2022/12/27 12:30:22;;;;;;;4.57;0.95;;;;;;;;;;4987577;28;20027;-67
2022/12/27 12:32:55;;;;;;;3.58;0.90;;;;;;;;;;4984163;28;20478;-66
2022/12/27 12:35:34;;;;;;;5.93;1.10;;;;;;;;;;4991338;28;20053;-67
2022/12/27 12:37:59;;;;;;;5.38;1.05;;;;;;;;;;4988383;28;20035;-66
2022/12/27 12:40:50;;;;;;;5.43;1.10;;;;;;;;;;4987799;28;20102;-67
2022/12/27 12:43:22;;;;;;;5.75;0.90;;;;;;;;;;4990219;28;20018;-68
2022/12/27 12:45:52;;;;;;;3.97;0.90;;;;;;;;;;4989760;28;20022;-67
2022/12/27 12:48:36;;;;;;;5.25;0.95;;;;;;;;;;4985553;28;20033;-68
2022/12/27 12:51:16;;;;;;;3.38;1.00;;;;;;;;;;4985826;28;20063;-67
2022/12/27 12:54:01;;;;;;;4.28;0.90;;;;;;;;;;4986261;28;20474;-66
2022/12/27 12:56:43;;;;;;;4.55;1.00;;;;;;;;;;4988794;28;20042;-67
2022/12/27 12:59:26;;;;;;;4.95;0.93;;;;;;;;;;4993332;28;20023;-68
2022/12/27 13:01:59;;;;;;;4.28;1.13;;;;;;;;;;4992230;28;20417;-67
2022/12/27 13:04:56;;;;;;;5.32;0.88;;;;;;;;;;4991028;28;20382;-66
2022/12/27 13:07:40;;;;;;;6.20;1.10;;;;;;;;;;4967123;28;20030;-67
2022/12/27 13:10:37;;;;;;;3.40;0.73;;;;;;;;;;4984692;28;20022;-66
2022/12/27 13:13:13;;;;;;;4.97;0.90;;;;;;;;;;4990903;28;20101;-66
2022/12/27 13:15:47;;;;;;;2.60;0.70;;;;;;;;;;4990921;28;20061;-67
2022/12/27 13:18:22;;;;;;;4.43;1.10;;;;;;;;;;4991566;28;21700;-67
2022/12/27 13:21:02;;;;;;;3.72;1.00;;;;;;;;;;4988505;28;20105;-66
2022/12/27 13:23:33;;;;;;;5.47;1.20;;;;;;;;;;4990842;28;20022;-68
2022/12/27 13:26:07;;;;;;;3.88;0.80;;;;;;;;;;4989217;28;20105;-68
2022/12/27 13:28:44;;;;;;;5.20;0.90;;;;;;;;;;4989738;28;20026;-66
2022/12/27 13:31:26;;;;;;;3.05;0.80;;;;;;;;;;4993540;28;20040;-67
2022/12/27 13:34:17;;;;;;;5.97;0.90;;;;;;;;;;4981972;28;20485;-67
2022/12/27 13:36:45;;;;;;;4.38;1.00;;;;;;;;;;4994898;28;20030;-67
2022/12/27 13:39:16;;;;;;;3.13;0.82;;;;;;;;;;4990903;28;20494;-67
2022/12/27 13:41:52;;;;;;;4.18;1.05;;;;;;;;;;4988402;28;20532;-68
2022/12/27 13:44:44;;;;;;;4.43;1.20;;;;;;;;;;4979829;28;20029;-68
2022/12/27 13:47:28;;;;;;;5.57;1.10;;;;;;;;;;4968029;28;20378;-68
2022/12/27 13:50:15;;;;;;;5.50;1.10;;;;;;;;;;4982427;28;20157;-67
2022/12/27 13:53:00;;;;;;;9.75;4.20;;;;;;;;;;4986242;28;20034;-67
2022/12/27 13:55:30;;;;;;;5.75;1.60;;;;;;;;;;4988397;28;20023;-67
2022/12/27 13:58:14;;;;;;;5.07;1.55;;;;;;;;;;4984687;28;20085;-66
2022/12/27 14:00:58;;;;;;;5.60;1.55;;;;;;;;;;4985420;28;20022;-67
2022/12/27 14:03:38;;;;;;;5.35;1.70;;;;;;;;;;4984035;28;20023;-67
2022/12/27 14:06:10;;;;;;;6.28;1.60;;;;;;;;;;4990201;28;20022;-67
2022/12/27 14:08:56;;;;;;;7.20;1.42;;;;;;;;;;4992095;28;20026;-67
2022/12/27 14:11:33;;;;;;;4.18;1.60;;;;;;;;;;4993004;28;20068;-67
2022/12/27 14:13:59;;;;;;;5.28;1.15;;;;;;;;;;4992098;28;20058;-66
2022/12/27 14:16:24;;;;;;;4.47;1.30;;;;;;;;;;4993523;28;20033;-67
2022/12/27 14:18:49;;;;;;;4.05;1.30;;;;;;;;;;4993146;28;20117;-66
2022/12/27 14:21:20;;;;;;;4.07;1.02;;;;;;;;;;4993048;28;20010;-67
2022/12/27 14:23:59;;;;;;;4.07;1.30;;;;;;;;;;4991332;28;20026;-67
2022/12/27 14:26:41;;;;;;;6.55;2.15;;;;;;;;;;4992960;28;20497;-66
2022/12/27 14:29:25;;;;;;;6.72;2.00;;;;;;;;;;4993022;28;20116;-67
2022/12/27 14:32:16;;;;;;;7.35;1.70;;;;;;;;;;4993011;28;20022;-67
2022/12/27 14:34:44;;;;;;;4.57;1.35;;;;;;;;;;4992545;28;20061;-67
2022/12/27 14:37:09;;;;;;;5.70;1.90;;;;;;;;;;4993052;28;20026;-67
2022/12/27 14:39:43;;;;;;;6.28;1.50;;;;;;;;;;4993020;28;20030;-68
2022/12/27 14:42:27;;;;;;;5.38;1.83;;;;;;;;;;4990447;28;20085;-67
2022/12/27 14:45:11;;;;;;;6.35;2.10;;;;;;;;;;4992480;28;20466;-67
2022/12/27 14:47:54;;;;;;;4.82;1.30;;;;;;;;;;4992453;28;20023;-66
2022/12/27 14:50:20;;;;;;;9.82;2.30;;;;;;;;;;4991230;28;20389;-67
2022/12/27 14:52:45;;;;;;;14.80;4.00;;;;;;;;;;4990966;28;20081;-67
2022/12/27 14:55:28;;;;;;;10.35;2.35;;;;;;;;;;4992174;28;21058;-67
2022/12/27 14:57:53;;;;;;;5.57;1.70;;;;;;;;;;4991967;28;20111;-67
2022/12/27 15:00:19;;;;;;;5.43;1.75;;;;;;;;;;4992426;28;20106;-68
2022/12/27 15:02:44;;;;;;;4.97;1.35;;;;;;;;;;4991780;28;20378;-67
2022/12/27 15:05:18;;;;;;;6.43;1.20;;;;;;;;;;4992440;28;20020;-67
2022/12/27 15:08:01;;;;;;;5.43;1.30;;;;;;;;;;5001719;28;20113;-68
2022/12/27 15:10:41;;;;;;;7.78;1.70;;;;;;;;;;5011410;28;20385;-67
2022/12/27 15:13:14;;;;;;;6.53;2.00;;;;;;;;;;5011230;28;20022;-68
2022/12/27 15:15:58;;;;;;;7.43;1.48;;;;;;;;;;5011559;28;20032;-67
2022/12/27 15:18:26;;;;;;;4.07;1.17;;;;;;;;;;5011057;28;20029;-67
2022/12/27 15:20:59;;;;;;;4.15;1.17;;;;;;;;;;5012049;28;20022;-68
2022/12/27 15:23:27;;;;;;;5.38;1.55;;;;;;;;;;5011272;28;20104;-67
2022/12/27 15:25:52;;;;;;;5.18;1.30;;;;;;;;;;5011623;28;20497;-69
2022/12/27 15:28:43;;;;;;;5.60;1.45;;;;;;;;;;5011539;28;20479;-67
2022/12/27 15:31:12;;;;;;;4.05;1.10;;;;;;;;;;5011728;28;20022;-68
2022/12/27 15:34:02;;;;;;;6.53;1.45;;;;;;;;;;5011493;28;20084;-68
2022/12/27 15:36:40;;;;;;;4.05;1.10;;;;;;;;;;5011858;28;20021;-67
2022/12/27 15:39:07;;;;;;;;;;;;;;;;;;5011905;28;20557;-67
2022/12/27 15:41:51;;;;;;;6.10;1.55;;;;;;;;;;5012229;28;19916;-68
2022/12/27 15:44:23;;;;;;;6.10;1.60;;;;;;;;;;4993141;28;20076;-68
2022/12/27 15:46:48;;;;;;;;;;;;;;;;;;4972904;28;20038;-68
2022/12/27 15:49:46;;;;;;;4.68;1.63;;;;;;;;;;4972471;28;19913;-68
2022/12/27 15:52:20;;;;;;;7.07;1.83;;;;;;;;;;4949736;28;20034;-67
2022/12/27 15:55:09;;;;;;;5.13;1.40;;;;;;;;;;4985623;28;20056;-67
2022/12/27 15:57:37;;;;;;;6.28;1.40;;;;;;;;;;4991486;28;20393;-67
2022/12/27 16:00:13;;;;;;;6.10;1.33;;;;;;;;;;4991527;28;20026;-67
2022/12/27 16:02:48;;;;;;;5.22;1.50;;;;;;;;;;4991279;28;20126;-68
2022/12/27 16:05:19;;;;;;;5.47;1.70;;;;;;;;;;4991125;28;20041;-68
2022/12/27 16:07:47;;;;;;;9.02;2.17;;;;;;;;;;5010652;28;20017;-68
2022/12/27 16:10:24;;;;;;;6.30;1.92;;;;;;;;;;5011203;28;20018;-68
2022/12/27 16:12:49;;;;;;;7.88;2.33;;;;;;;;;;5010770;28;20121;-68
2022/12/27 16:15:33;;;;;;;8.33;2.23;;;;;;;;;;4997958;28;20061;-68
2022/12/27 16:17:58;;;;;;;8.60;1.90;;;;;;;;;;4991205;28;20557;-69
2022/12/27 16:20:23;;;;;;;4.83;1.77;;;;;;;;;;4991307;28;20113;-68
2022/12/27 16:22:52;;;;;;;5.33;1.50;;;;;;;;;;4990786;28;20026;-69
2022/12/27 16:25:17;;;;;;;5.40;1.70;;;;;;;;;;4990308;28;20026;-68
2022/12/27 16:27:43;;;;;;;5.10;1.50;;;;;;;;;;4991348;28;20027;-68
2022/12/27 16:30:09;;;;;;;5.22;1.50;;;;;;;;;;4993889;28;20497;-67
2022/12/27 16:32:34;;;;;;;6.38;1.90;;;;;;;;;;4994623;28;20437;-67
2022/12/27 16:35:13;;;;;;;5.93;2.67;;;;;;;;;;4994317;28;20436;-69
2022/12/27 16:37:41;;;;;;;8.20;2.95;;;;;;;;;;4995161;28;20030;-68